createdAt,value
2018-03-02T00:00:04.418Z,-6.0
2018-03-02T00:05:02.877Z,-6.0
2018-03-02T00:10:02.531Z,-6.0
2018-03-02T00:15:03.326Z,-6.0
2018-03-02T00:20:02.815Z,-6.1
2018-03-02T00:25:03.374Z,-6.1
2018-03-02T00:30:03.121Z,-6.1
2018-03-02T00:35:02.579Z,-6.1
2018-03-02T00:40:03.061Z,-6.1
2018-03-02T00:45:02.551Z,-6.4
2018-03-02T00:50:03.004Z,-6.4
2018-03-02T00:55:02.511Z,-6.4
2018-03-02T01:00:02.974Z,-6.4
2018-03-02T01:05:02.510Z,-6.4
2018-03-02T01:10:03.023Z,-6.4
2018-03-02T01:15:02.493Z,-6.4
2018-03-02T01:20:03.189Z,-6.4
2018-03-02T01:25:02.675Z,-6.4
2018-03-02T01:30:03.129Z,-6.4
2018-03-02T01:35:02.660Z,-6.5
2018-03-02T01:40:03.147Z,-6.5
2018-03-02T01:45:02.665Z,-6.5
2018-03-02T01:50:03.276Z,-6.8
2018-03-02T01:55:02.738Z,-6.5
2018-03-02T02:00:03.197Z,-6.5
2018-03-02T02:05:02.654Z,-6.5
2018-03-02T02:10:03.109Z,-6.8
2018-03-02T02:15:02.567Z,-6.8
2018-03-02T02:20:03.091Z,-6.8
2018-03-02T02:25:02.587Z,-6.8
2018-03-02T02:30:03.122Z,-6.8
2018-03-02T02:35:02.580Z,-6.8
2018-03-02T02:40:03.156Z,-7.0
2018-03-02T02:45:02.727Z,-7.0
2018-03-02T02:50:03.203Z,-7.0
2018-03-02T02:55:02.631Z,-7.0
2018-03-02T03:00:03.134Z,-7.0
2018-03-02T03:05:02.603Z,-7.0
2018-03-02T03:10:03.101Z,-7.0
2018-03-02T03:15:02.533Z,-7.0
2018-03-02T03:20:03.050Z,-7.0
2018-03-02T03:25:02.593Z,-7.0
2018-03-02T03:30:03.108Z,-7.1
2018-03-02T03:35:02.614Z,-7.1
2018-03-02T03:40:03.100Z,-7.1
2018-03-02T03:45:02.602Z,-7.1
2018-03-02T03:50:03.271Z,-7.1
2018-03-02T03:55:02.730Z,-7.4
2018-03-02T04:00:03.278Z,-7.4
2018-03-02T04:05:02.742Z,-7.4
2018-03-02T04:10:03.300Z,-7.4
2018-03-02T04:15:02.798Z,-7.4
2018-03-02T04:20:03.315Z,-7.4
2018-03-02T04:25:02.772Z,-7.4
2018-03-02T04:30:03.265Z,-7.4
2018-03-02T04:35:02.754Z,-7.4
2018-03-02T04:40:03.265Z,-7.4
2018-03-02T04:45:02.736Z,-7.4
2018-03-02T04:50:03.211Z,-7.4
2018-03-02T04:55:02.677Z,-7.4
2018-03-02T05:00:03.226Z,-7.4
2018-03-02T05:05:02.729Z,-7.4
2018-03-02T05:10:03.262Z,-7.4
2018-03-02T05:15:02.757Z,-7.4
2018-03-02T05:20:03.197Z,-7.4
2018-03-02T05:25:02.667Z,-7.4
2018-03-02T05:30:02.649Z,-7.5
2018-03-02T05:35:03.091Z,-7.5
2018-03-02T05:40:02.746Z,-7.5
2018-03-02T05:45:03.243Z,-7.5
2018-03-02T05:50:02.698Z,-7.5
2018-03-02T05:55:03.155Z,-7.8
2018-03-02T06:00:02.591Z,-7.8
2018-03-02T06:05:03.307Z,-7.8
2018-03-02T06:10:02.851Z,-7.8
2018-03-02T06:15:03.374Z,-7.8
2018-03-02T06:20:02.835Z,-8.0
2018-03-02T06:25:03.275Z,-8.0
2018-03-02T06:30:02.778Z,-8.0
2018-03-02T06:35:03.292Z,-8.0
2018-03-02T06:40:02.763Z,-8.0
2018-03-02T06:45:03.227Z,-8.0
2018-03-02T06:50:02.621Z,-8.0
2018-03-02T06:55:03.054Z,-8.0
2018-03-02T07:00:02.531Z,-8.0
2018-03-02T07:05:02.975Z,-7.8
2018-03-02T07:10:02.537Z,-7.8
2018-03-02T07:15:03.011Z,-7.8
2018-03-02T07:20:02.521Z,-7.5
2018-03-02T07:25:02.951Z,-7.4
2018-03-02T07:30:02.395Z,-7.4
2018-03-02T07:35:02.785Z,-7.4
2018-03-02T07:40:03.325Z,-7.4
2018-03-02T07:45:02.821Z,-7.1
2018-03-02T07:50:03.309Z,-7.1
2018-03-02T07:55:02.750Z,-7.1
2018-03-02T08:00:03.203Z,-7.0
2018-03-02T08:05:02.605Z,-6.8
2018-03-02T08:10:03.139Z,-6.5
2018-03-02T08:15:02.572Z,-6.5
2018-03-02T08:20:03.066Z,-6.4
2018-03-02T08:25:02.557Z,-6.1
2018-03-02T08:30:03.380Z,-6.0
2018-03-02T08:35:02.860Z,-5.5
2018-03-02T08:40:02.381Z,-5.5
2018-03-02T08:45:02.863Z,-5.1
2018-03-02T08:50:02.406Z,-4.9
2018-03-02T08:55:02.903Z,-4.6
2018-03-02T09:00:02.443Z,-4.3
2018-03-02T09:05:02.987Z,-4.0
2018-03-02T09:10:02.594Z,-4.0
2018-03-02T09:15:03.080Z,-3.9
2018-03-02T09:20:02.564Z,-3.9
2018-03-02T09:25:03.052Z,-3.5
2018-03-02T09:30:02.506Z,-3.5
2018-03-02T09:35:03.278Z,-3.5
2018-03-02T09:40:02.786Z,-3.2
2018-03-02T09:45:03.233Z,-3.5
2018-03-02T09:50:02.766Z,-3.0
2018-03-02T09:55:03.252Z,-3.2
2018-03-02T10:00:02.751Z,-3.0
2018-03-02T10:05:03.143Z,-2.9
2018-03-02T10:10:02.630Z,-2.9
2018-03-02T10:15:03.073Z,-2.9
2018-03-02T10:20:02.516Z,-2.5
2018-03-02T10:25:03.023Z,-2.2
2018-03-02T10:30:02.422Z,-2.5
2018-03-02T10:35:02.900Z,-2.0
2018-03-02T10:40:03.300Z,-2.2
2018-03-02T10:45:02.686Z,-1.7
2018-03-02T10:50:03.251Z,-1.8
2018-03-02T10:55:02.730Z,-1.8
2018-03-02T11:00:03.168Z,-0.8
2018-03-02T11:05:02.603Z,-1.5
2018-03-02T11:10:03.170Z,-0.6
2018-03-02T11:15:02.632Z,-0.6
2018-03-02T11:20:03.168Z,-0.6
2018-03-02T11:25:02.607Z,0.0
2018-03-02T11:30:03.062Z,-0.5
2018-03-02T11:35:02.532Z,-0.8
2018-03-02T11:40:03.028Z,0.1
2018-03-02T11:45:02.554Z,0.0
2018-03-02T11:50:03.058Z,-0.3
2018-03-02T11:55:02.516Z,0.1
2018-03-02T12:00:02.990Z,0.1
2018-03-02T12:05:02.482Z,0.6
2018-03-02T12:10:03.051Z,0.3
2018-03-02T12:15:02.585Z,0.6
2018-03-02T12:20:03.038Z,0.6
2018-03-02T12:25:02.466Z,0.6
2018-03-02T12:30:02.912Z,0.6
2018-03-02T12:35:02.429Z,0.7
2018-03-02T12:40:03.024Z,0.8
2018-03-02T12:45:02.554Z,1.1
2018-03-02T12:50:03.080Z,1.1
2018-03-02T12:55:02.620Z,1.1
2018-03-02T13:00:03.386Z,1.2
2018-03-02T13:05:03.263Z,1.8
2018-03-02T13:10:02.843Z,1.6
2018-03-02T13:15:03.363Z,1.6
2018-03-02T13:20:02.829Z,1.1
2018-03-02T13:25:03.293Z,1.1
2018-03-02T13:30:02.762Z,0.0
2018-03-02T13:35:03.245Z,0.1
2018-03-02T13:40:02.696Z,-0.3
2018-03-02T13:45:03.223Z,-0.3
2018-03-02T13:50:02.682Z,-0.5
2018-03-02T13:55:03.224Z,-0.3
2018-03-02T14:00:02.734Z,-0.3
2018-03-02T14:05:03.308Z,-0.6
2018-03-02T14:10:02.831Z,-0.6
2018-03-02T14:15:03.395Z,-0.6
2018-03-02T14:20:02.899Z,-0.6
2018-03-02T14:25:03.392Z,-0.6
2018-03-02T14:30:03.141Z,-0.8
2018-03-02T14:35:02.632Z,-0.8
2018-03-02T14:40:03.173Z,-0.8
2018-03-02T14:45:02.659Z,-0.8
2018-03-02T14:50:03.245Z,-0.8
2018-03-02T14:55:02.771Z,-0.6
2018-03-02T15:00:03.284Z,-0.6
2018-03-02T15:05:02.840Z,-0.6
2018-03-02T15:10:02.410Z,-0.8
2018-03-02T15:15:02.935Z,-0.8
2018-03-02T15:20:02.541Z,-0.8
2018-03-02T15:25:02.975Z,-1.1
2018-03-02T15:30:02.445Z,-1.2
2018-03-02T15:35:02.934Z,-0.8
2018-03-02T15:40:02.573Z,-1.2
2018-03-02T15:45:02.944Z,-1.2
2018-03-02T15:50:02.515Z,-1.5
2018-03-02T15:55:03.033Z,-1.5
2018-03-02T16:00:02.584Z,-1.2
2018-03-02T16:05:03.076Z,-1.5
2018-03-02T16:10:02.547Z,-1.5
2018-03-02T16:15:03.099Z,-1.7
2018-03-02T16:20:02.861Z,-1.7
2018-03-02T16:25:03.403Z,-1.8
2018-03-02T16:30:02.905Z,-1.8
2018-03-02T16:35:02.476Z,-1.8
2018-03-02T16:40:03.075Z,-1.8
2018-03-02T16:45:02.600Z,-2.0
2018-03-02T16:50:03.087Z,-2.0
2018-03-02T16:55:02.583Z,-2.2
2018-03-02T17:00:03.182Z,-2.2
2018-03-02T17:05:02.618Z,-2.2
2018-03-02T17:10:03.276Z,-2.5
2018-03-02T17:15:02.759Z,-2.5
2018-03-02T17:20:03.305Z,-2.5
2018-03-02T17:25:02.758Z,-2.5
2018-03-02T17:30:03.202Z,-2.7
2018-03-02T17:35:02.645Z,-2.7
2018-03-02T17:40:03.235Z,-2.7
2018-03-02T17:45:02.705Z,-2.7
2018-03-02T17:50:03.223Z,-2.7
2018-03-02T17:55:02.701Z,-2.5
2018-03-02T18:00:03.223Z,-2.7
2018-03-02T18:05:03.376Z,-2.7
2018-03-02T18:10:02.941Z,-2.7
2018-03-02T18:15:02.415Z,-2.5
2018-03-02T18:20:02.887Z,-2.5
2018-03-02T18:25:03.649Z,-2.7
2018-03-02T18:30:03.181Z,-2.7
2018-03-02T18:35:02.680Z,-2.7
2018-03-02T18:40:03.252Z,-2.7
2018-03-02T18:45:02.720Z,-2.7
2018-03-02T18:50:03.279Z,-2.7
2018-03-02T18:55:02.755Z,-2.7
2018-03-02T19:00:03.307Z,-2.7
2018-03-02T19:05:02.764Z,-2.5
2018-03-02T19:10:03.363Z,-2.5
2018-03-02T19:15:02.839Z,-2.5
2018-03-02T19:20:02.695Z,-2.5
2018-03-02T19:25:02.708Z,-2.2
2018-03-02T19:30:03.249Z,-2.2
2018-03-02T19:35:03.057Z,-2.2
2018-03-02T19:40:02.604Z,-2.2
2018-03-02T19:45:03.309Z,-2.2
2018-03-02T19:50:03.172Z,-2.2
2018-03-02T19:55:02.646Z,-2.2
2018-03-02T20:00:02.469Z,-2.2
2018-03-02T20:05:04.119Z,-2.2
2018-03-02T20:10:02.975Z,-2.5
2018-03-02T20:15:03.665Z,-2.5
2018-03-02T20:20:03.293Z,-2.5
2018-03-02T20:25:02.885Z,-2.5
2018-03-02T20:30:02.529Z,-2.5
2018-03-02T20:35:03.411Z,-2.5
2018-03-02T20:40:03.301Z,-2.5
2018-03-02T20:45:03.199Z,-2.5
2018-03-02T20:50:02.709Z,-2.5
2018-03-02T20:55:02.756Z,-2.5
2018-03-02T21:00:02.803Z,-2.7
2018-03-02T21:05:03.389Z,-2.7
2018-03-02T21:10:03.375Z,-2.7
2018-03-02T21:15:02.895Z,-2.7
2018-03-02T21:20:02.417Z,-2.7
2018-03-02T21:25:02.400Z,-2.7
2018-03-02T21:30:02.910Z,-2.7
2018-03-02T21:35:02.681Z,-2.7
2018-03-02T21:40:03.228Z,-2.7
2018-03-02T21:45:02.719Z,-2.7
2018-03-02T21:50:03.266Z,-2.7
2018-03-02T21:55:02.734Z,-2.7
2018-03-02T22:00:03.258Z,-2.7
2018-03-02T22:05:02.736Z,-2.7
2018-03-02T22:10:03.365Z,-2.7
2018-03-02T22:15:02.787Z,-2.7
2018-03-02T22:20:03.363Z,-2.7
2018-03-02T22:25:02.833Z,-2.7
2018-03-02T22:30:03.671Z,-2.5
2018-03-02T22:35:03.384Z,-2.5
2018-03-02T22:40:02.928Z,-2.5
2018-03-02T22:45:03.355Z,-2.5
2018-03-02T22:50:02.820Z,-2.5
2018-03-02T22:55:03.330Z,-2.7
2018-03-02T23:00:02.792Z,-2.5
2018-03-02T23:05:03.308Z,-2.5
2018-03-02T23:10:02.861Z,-2.5
2018-03-02T23:15:03.377Z,-2.5
2018-03-02T23:20:03.033Z,-2.5
2018-03-02T23:25:02.449Z,-2.5
2018-03-02T23:30:02.986Z,-2.5
2018-03-02T23:35:02.490Z,-2.5
2018-03-02T23:40:02.976Z,-2.5
2018-03-02T23:45:02.420Z,-2.5
2018-03-02T23:50:02.877Z,-2.7
2018-03-02T23:55:03.314Z,-2.7
